createdAt,value
2022-08-21T00:02:55.807Z,100.00
2022-08-21T00:07:58.422Z,100.00
2022-08-21T00:13:02.490Z,100.00
2022-08-21T00:18:06.763Z,100.00
2022-08-21T00:23:09.257Z,100.00
2022-08-21T00:28:12.389Z,100.00
2022-08-21T00:33:14.576Z,100.00
2022-08-21T00:38:16.736Z,100.00
2022-08-21T00:43:22.721Z,100.00
2022-08-21T00:48:26.012Z,100.00
2022-08-21T00:53:28.914Z,100.00
2022-08-21T00:58:32.389Z,100.00
2022-08-21T01:03:35.673Z,100.00
2022-08-21T01:08:37.953Z,100.00
2022-08-21T01:13:49.659Z,100.00
2022-08-21T01:18:52.238Z,100.00
2022-08-21T01:23:55.825Z,100.00
2022-08-21T01:29:38.411Z,100.00
2022-08-21T01:34:44.487Z,100.00
2022-08-21T01:39:47.793Z,100.00
2022-08-21T01:44:50.076Z,100.00
2022-08-21T01:49:56.614Z,100.00
2022-08-21T01:54:58.785Z,100.00
2022-08-21T02:00:01.141Z,100.00
2022-08-21T02:05:04.758Z,100.00
2022-08-21T02:10:10.552Z,100.00
2022-08-21T02:15:12.760Z,100.00
2022-08-21T02:20:37.097Z,100.00
2022-08-21T02:25:39.210Z,100.00
2022-08-21T02:30:47.097Z,100.00
2022-08-21T02:35:50.372Z,100.00
2022-08-21T02:40:53.888Z,100.00
2022-08-21T02:45:57.843Z,100.00
2022-08-21T02:51:03.352Z,100.00
2022-08-21T02:56:10.475Z,100.00
2022-08-21T03:01:13.492Z,100.00
2022-08-21T03:06:17.828Z,100.00
2022-08-21T03:11:20.001Z,100.00
2022-08-21T03:16:22.225Z,100.00
2022-08-21T03:21:24.410Z,100.00
2022-08-21T03:26:27.959Z,100.00
2022-08-21T03:31:30.233Z,100.00
2022-08-21T03:36:32.664Z,100.00
2022-08-21T03:41:34.815Z,100.00
2022-08-21T03:46:37.013Z,100.00
2022-08-21T03:51:39.195Z,100.00
2022-08-21T03:56:41.739Z,100.00
2022-08-21T04:01:59.065Z,100.00
2022-08-21T04:07:01.655Z,100.00
2022-08-21T04:12:04.209Z,100.00
2022-08-21T04:17:06.370Z,100.00
2022-08-21T04:22:08.531Z,100.00
2022-08-21T04:27:10.695Z,100.00
2022-08-21T04:32:12.875Z,100.00
2022-08-21T04:37:15.033Z,100.00
2022-08-21T04:42:17.217Z,100.00
2022-08-21T04:47:19.441Z,100.00
2022-08-21T04:52:24.153Z,100.00
2022-08-21T04:57:36.424Z,100.00
2022-08-21T05:02:49.752Z,100.00
2022-08-21T05:07:54.138Z,100.00
2022-08-21T05:12:56.746Z,100.00
2022-08-21T05:18:01.435Z,100.00
2022-08-21T05:23:13.036Z,100.00
2022-08-21T05:28:15.194Z,100.00
2022-08-21T05:33:17.383Z,100.00
2022-08-21T05:38:19.983Z,100.00
2022-08-21T05:43:22.458Z,100.00
2022-08-21T05:48:25.507Z,100.00
2022-08-21T05:53:27.665Z,100.00
2022-08-21T05:58:30.279Z,100.00
2022-08-21T06:03:38.248Z,100.00
2022-08-21T06:08:40.423Z,100.00
2022-08-21T06:13:42.596Z,100.00
2022-08-21T06:18:46.104Z,100.00
2022-08-21T06:23:48.261Z,100.00
2022-08-21T06:28:51.975Z,100.00
2022-08-21T06:33:55.427Z,100.00
2022-08-21T06:38:58.018Z,100.00
2022-08-21T06:44:00.451Z,100.00
2022-08-21T06:49:02.638Z,100.00
2022-08-21T06:54:05.044Z,100.00
2022-08-21T06:59:07.227Z,100.00
2022-08-21T07:04:09.686Z,100.00
2022-08-21T07:09:11.892Z,100.00
2022-08-21T07:14:20.568Z,100.00
2022-08-21T07:19:22.855Z,100.00
2022-08-21T07:24:25.044Z,100.00
2022-08-21T07:29:27.219Z,100.00
2022-08-21T07:34:29.408Z,98.87
2022-08-21T07:39:31.584Z,97.51
2022-08-21T07:44:33.984Z,95.98
2022-08-21T07:49:43.380Z,91.08
2022-08-21T07:54:51.341Z,88.74
2022-08-21T08:00:01.978Z,84.25
2022-08-21T08:05:14.195Z,83.12
2022-08-21T08:10:17.942Z,81.13
2022-08-21T08:15:22.737Z,78.65
2022-08-21T08:20:36.524Z,77.95
2022-08-21T08:25:38.898Z,76.55
2022-08-21T08:30:40.938Z,74.86
2022-08-21T08:35:51.178Z,72.34
2022-08-21T08:41:16.156Z,67.05
2022-08-21T08:46:25.976Z,63.94
2022-08-21T08:51:47.637Z,70.52
2022-08-21T08:56:55.380Z,63.53
2022-08-21T09:01:57.616Z,60.93
2022-08-21T09:07:16.889Z,60.51
2022-08-21T09:12:49.874Z,67.34
2022-08-21T09:18:16.749Z,70.29
2022-08-21T09:23:45.180Z,70.68
2022-08-21T09:28:53.852Z,65.12
2022-08-21T09:34:07.444Z,66.83
2022-08-21T09:39:11.598Z,69.90
2022-08-21T09:44:13.814Z,66.27
2022-08-21T09:49:28.764Z,59.45
2022-08-21T09:54:39.576Z,61.07
2022-08-21T09:59:42.553Z,54.82
2022-08-21T10:04:51.488Z,50.26
2022-08-21T10:10:03.992Z,50.74
2022-08-21T10:15:25.118Z,47.29
2022-08-21T10:20:41.411Z,53.53
2022-08-21T10:25:56.968Z,51.07
2022-08-21T10:31:25.707Z,51.00
2022-08-21T10:36:41.408Z,52.31
2022-08-21T10:42:01.832Z,49.49
2022-08-21T10:47:22.441Z,46.58
2022-08-21T10:53:02.556Z,46.85
2022-08-21T10:58:10.868Z,46.24
2022-08-21T11:03:45.762Z,44.04
2022-08-21T11:08:54.661Z,42.00
2022-08-21T11:14:03.757Z,46.35
2022-08-21T11:19:13.969Z,47.93
2022-08-21T11:24:30.044Z,43.00
2022-08-21T11:29:41.962Z,41.39
2022-08-21T11:34:43.948Z,38.99
2022-08-21T11:39:57.322Z,39.23
2022-08-21T11:45:18.352Z,37.73
2022-08-21T11:50:35.158Z,37.49
2022-08-21T11:56:12.787Z,38.00
2022-08-21T12:01:22.646Z,37.80
2022-08-21T12:06:34.122Z,38.70
2022-08-21T12:11:50.850Z,34.95
2022-08-21T12:17:06.500Z,36.96
2022-08-21T12:22:14.923Z,36.08
2022-08-21T12:27:28.952Z,36.89
2022-08-21T12:32:45.244Z,37.88
2022-08-21T12:37:52.697Z,35.59
2022-08-21T12:42:59.300Z,38.98
2022-08-21T12:48:11.508Z,39.12
2022-08-21T12:53:24.306Z,37.44
2022-08-21T12:58:26.693Z,37.13
2022-08-21T13:03:29.556Z,38.87
2022-08-21T13:08:40.110Z,36.49
2022-08-21T13:13:51.046Z,41.36
2022-08-21T13:19:05.223Z,44.52
2022-08-21T13:24:42.786Z,49.19
2022-08-21T13:29:51.445Z,52.42
2022-08-21T13:35:02.151Z,56.59
2022-08-21T13:40:09.009Z,58.24
2022-08-21T13:45:33.216Z,60.40
2022-08-21T13:50:38.653Z,67.77
2022-08-21T13:55:43.891Z,81.38
2022-08-21T14:00:51.589Z,88.28
2022-08-21T14:05:53.783Z,86.45
2022-08-21T14:10:57.596Z,82.19
2022-08-21T14:16:03.481Z,80.02
2022-08-21T14:21:08.885Z,79.29
2022-08-21T14:26:11.317Z,76.10
2022-08-21T14:31:19.210Z,71.86
2022-08-21T14:36:21.741Z,68.09
2022-08-21T14:41:25.062Z,63.83
2022-08-21T14:46:29.354Z,64.34
2022-08-21T14:51:31.881Z,62.50
2022-08-21T14:56:35.888Z,65.91
2022-08-21T15:01:39.713Z,60.50
2022-08-21T15:06:42.485Z,59.35
2022-08-21T15:11:44.709Z,61.85
2022-08-21T15:16:48.079Z,61.84
2022-08-21T15:21:50.289Z,60.40
2022-08-21T15:26:53.411Z,59.05
2022-08-21T15:32:01.965Z,59.05
2022-08-21T15:37:04.227Z,59.39
2022-08-21T15:42:10.792Z,57.85
2022-08-21T15:47:22.700Z,60.66
2022-08-21T15:52:25.019Z,61.59
2022-08-21T15:57:27.464Z,63.42
2022-08-21T16:02:32.604Z,65.76
2022-08-21T16:07:34.805Z,71.23
2022-08-21T16:12:44.416Z,84.34
2022-08-21T16:17:48.871Z,88.73
2022-08-21T16:22:51.752Z,90.80
2022-08-21T16:27:59.578Z,93.05
2022-08-21T16:33:04.299Z,94.37
2022-08-21T16:38:06.456Z,94.86
2022-08-21T16:43:08.662Z,94.77
2022-08-21T16:48:11.066Z,96.91
2022-08-21T16:53:13.393Z,98.24
2022-08-21T16:58:21.067Z,100.00
2022-08-21T17:03:31.700Z,100.00
2022-08-21T17:08:34.005Z,100.00
2022-08-21T17:13:36.303Z,100.00
2022-08-21T17:18:38.681Z,100.00
2022-08-21T17:23:41.466Z,100.00
2022-08-21T17:28:45.097Z,100.00
2022-08-21T17:33:50.625Z,100.00
2022-08-21T17:38:52.981Z,100.00
2022-08-21T17:43:55.815Z,100.00
2022-08-21T17:48:58.288Z,100.00
2022-08-21T17:54:00.429Z,100.00
2022-08-21T17:59:05.353Z,100.00
2022-08-21T18:04:07.532Z,100.00
2022-08-21T18:09:11.632Z,100.00
2022-08-21T18:14:13.934Z,100.00
2022-08-21T18:19:16.228Z,100.00
2022-08-21T18:24:18.518Z,100.00
2022-08-21T18:29:22.591Z,100.00
2022-08-21T18:34:29.236Z,100.00
2022-08-21T18:39:36.700Z,100.00
2022-08-21T18:44:41.914Z,100.00
2022-08-21T18:49:44.273Z,100.00
2022-08-21T18:54:46.651Z,100.00
2022-08-21T18:59:52.035Z,100.00
2022-08-21T19:04:54.217Z,100.00
2022-08-21T19:10:24.217Z,100.00
2022-08-21T19:15:21.110Z,100.00
2022-08-21T19:20:29.047Z,100.00
2022-08-21T19:25:33.312Z,100.00
2022-08-21T19:30:45.826Z,100.00
2022-08-21T19:35:52.433Z,100.00
2022-08-21T19:40:55.416Z,100.00
2022-08-21T19:45:58.537Z,100.00
2022-08-21T19:51:00.836Z,100.00
2022-08-21T19:56:03.182Z,100.00
2022-08-21T20:01:11.373Z,100.00
2022-08-21T20:06:19.964Z,100.00
2022-08-21T20:11:28.626Z,100.00
2022-08-21T20:16:34.580Z,100.00
2022-08-21T20:21:43.292Z,100.00
2022-08-21T20:26:49.440Z,100.00
2022-08-21T20:31:52.269Z,100.00
2022-08-21T20:36:54.467Z,100.00
2022-08-21T20:41:57.217Z,100.00
2022-08-21T20:47:00.306Z,100.00
2022-08-21T20:57:50.998Z,100.00
2022-08-21T21:03:07.296Z,100.00
2022-08-21T21:08:18.397Z,100.00
2022-08-21T21:13:32.658Z,100.00
2022-08-21T21:18:34.762Z,100.00
2022-08-21T21:23:59.581Z,100.00
2022-08-21T21:29:10.790Z,100.00
2022-08-21T21:34:16.964Z,100.00
2022-08-21T21:39:44.937Z,100.00
2022-08-21T21:44:49.856Z,100.00
2022-08-21T21:50:18.775Z,100.00
2022-08-21T21:55:28.898Z,100.00
2022-08-21T22:00:34.074Z,100.00
2022-08-21T22:06:21.541Z,100.00
2022-08-21T22:11:40.948Z,100.00
2022-08-21T22:16:46.049Z,100.00
2022-08-21T22:22:11.215Z,100.00
2022-08-21T22:27:31.758Z,100.00
2022-08-21T22:32:40.047Z,100.00
2022-08-21T22:37:53.883Z,100.00
2022-08-21T22:43:09.543Z,100.00
2022-08-21T22:48:22.341Z,100.00
2022-08-21T22:53:28.434Z,100.00
2022-08-21T22:58:33.619Z,100.00
2022-08-21T23:03:48.612Z,100.00
2022-08-21T23:08:51.465Z,100.00
2022-08-21T23:13:54.927Z,100.00
2022-08-21T23:18:57.143Z,100.00
2022-08-21T23:24:21.751Z,100.00
2022-08-21T23:29:32.782Z,100.00
2022-08-21T23:35:01.814Z,100.00
2022-08-21T23:40:12.740Z,100.00
2022-08-21T23:50:49.558Z,100.00
